Impacts TAF Board
For situational awareness. Not to be used for flight planning purposes.
IDs:

KDFW - Dallas-Ft Worth Intl, TX, US

Issued at 0520 UTC 20 Oct 2018
Updated at 0618 UTC 20 Oct 2018
Potential Impact None Slight Moderate High
Time<<21/07Z 21/08Z 21/09Z 21/10Z 21/11Z 21/12Z 21/13Z 21/14Z 21/15Z 21/16Z 21/17Z 21/18Z 21/19Z
Type PRVL PRVL PRVL PRVL PRVL
VIS >6 >6 >6 >6 >6
CIG -- -- -- -- --
Cover SCT SCT SCT SCT SCT
FltCat VFR VFR VFR VFR VFR
WX -- -- -- -- --
WDir 10 10 10 10 10
WSpd 8 8 8 8 8
WGst -- -- -- -- --
Raw TAF
KDFW 200520Z 2006/2112 00000KT P6SM SCT008 OVC015
  TEMPO 2006/2009 5SM BR BKN008
  FM201200 35006KT 4SM BR OVC007
  FM201600 01010KT P6SM BKN012
  FM201900 02015KT P6SM SCT025 BKN300
  FM210100 01008KT P6SM SCT300


METAR Board
Radar Display
Forecast Discussion
For situational awareness. Not to be used for flight planning purposes.